.
WxDataArchive / Data Records for 2011-06-01
2011-05-31 June 2011 2011-06-02

Data Records for Wednesday, 01 June 2011

Time	Temp	Chill	HIndex	Humid	Dewpt	 Wind 	HiWind	WindDir	Rain 	Barom 
-----	----	-----	------	-----	-----	------	------	-------	-----	----- 
00:00	78.8	78.8	80.8	65	66.0	0	2	315	0.00	30.076 
00:05	78.6	78.6	80.6	65	65.8	1	3	315	0.00	30.076 
00:10	78.6	78.6	80.6	65	65.8	0	2	248	0.00	30.076 
00:15	78.6	78.6	80.6	65	65.8	1	3	248	0.00	30.075 
00:20	78.6	78.6	80.6	65	65.8	0	3	248	0.00	30.075 
00:25	78.6	78.6	80.6	65	65.8	1	3	248	0.00	30.075 
00:30	78.6	78.6	80.6	65	65.8	1	2	248	0.00	30.075 
00:35	78.6	78.6	80.6	65	65.8	1	3	248	0.00	30.075 
00:40	78.6	78.6	80.6	65	65.8	0	2	248	0.00	30.075 
00:45	78.6	78.6	80.6	65	65.8	1	3	248	0.00	30.074 
00:50	78.6	78.6	80.6	65	65.8	1	3	270	0.00	30.074 
00:55	78.5	78.5	80.4	65	65.7	0	1	270	0.00	30.074 
01:00	78.3	78.3	80.2	65	65.5	0	3	270	0.00	30.075 
01:05	78.1	78.1	80.0	65	65.4	0	2	270	0.00	30.075 
01:10	78.1	78.1	80.0	65	65.4	0	2	270	0.00	30.075 
01:15	77.9	77.9	79.7	65	65.2	1	3	270	0.00	30.073 
01:20	77.9	77.9	79.7	65	65.2	0	2	270	0.00	30.073 
01:25	77.7	77.7	79.6	66	65.4	0	2	270	0.00	30.073 
01:30	77.7	77.7	79.6	66	65.4	1	4	270	0.00	30.074 
01:35	77.7	77.7	79.6	66	65.4	1	2	270	0.00	30.074 
01:40	77.6	77.6	79.4	66	65.3	0	3	270	0.00	30.074 
01:45	77.6	77.6	79.4	66	65.3	1	3	270	0.00	30.077 
01:50	77.4	77.4	79.2	66	65.1	1	3	270	0.00	30.077 
01:55	77.4	77.4	79.2	66	65.1	0	2	270	0.00	30.077 
02:00	77.4	77.4	79.2	66	65.1	1	2	270	0.00	30.077 
02:05	77.2	77.2	79.0	66	64.9	0	2	270	0.00	30.077 
02:10	77.2	77.2	79.0	67	65.4	0	2	270	0.00	30.077 
02:15	77.0	77.0	78.8	67	65.2	0	2	270	0.00	30.076 
02:20	77.0	77.0	78.8	68	65.6	0	2	270	0.00	30.076 
02:25	76.8	76.8	78.6	68	65.4	1	2	270	0.00	30.076 
02:30	76.7	76.7	78.4	69	65.7	1	2	270	0.00	30.080 
02:35	76.7	76.7	78.4	69	65.7	1	3	270	0.00	30.080 
02:40	76.5	76.5	78.2	69	65.6	1	3	270	0.00	30.080 
02:45	76.3	76.3	78.0	70	65.8	1	3	270	0.00	30.079 
02:50	76.1	76.1	77.7	71	66.0	1	3	270	0.00	30.079 
02:55	75.8	75.8	77.3	72	66.1	2	4	270	0.00	30.079 
03:00	75.6	75.6	77.0	73	66.3	1	3	338	0.00	30.089 
03:05	75.4	75.4	76.8	73	66.1	1	3	338	0.00	30.089 
03:10	75.1	75.1	76.6	72	65.4	2	4	315	0.00	30.089 
03:15	75.1	75.1	76.7	71	65.0	3	5	270	0.00	30.090 
03:20	74.9	74.9	74.9	70	64.4	2	4	292	0.00	30.090 
03:25	74.7	74.7	74.7	69	63.8	2	4	292	0.00	30.090 
03:30	74.6	74.6	74.6	68	63.3	2	4	292	0.00	30.091 
03:35	74.4	74.4	74.4	68	63.1	1	4	292	0.00	30.091 
03:40	74.2	74.2	74.2	67	62.5	1	3	292	0.00	30.091 
03:45	74.0	74.0	74.0	66	61.9	1	4	292	0.00	30.098 
03:50	73.9	73.9	73.9	66	61.8	1	3	292	0.00	30.098 
03:55	73.7	73.7	73.7	65	61.2	1	4	292	0.00	30.098 
04:00	73.5	73.5	73.5	65	61.0	0	2	292	0.00	30.102 
04:05	73.2	73.2	73.2	65	60.7	0	2	292	0.00	30.102 
04:10	73.0	73.0	73.0	65	60.5	1	5	270	0.00	30.102 
04:15	72.8	72.8	72.8	65	60.3	1	2	270	0.00	30.105 
04:20	72.7	72.7	72.7	65	60.2	1	4	270	0.00	30.105 
04:25	72.7	72.7	72.7	65	60.2	1	2	270	0.00	30.105 
04:30	72.3	72.3	72.3	65	59.9	0	2	270	0.00	30.111 
04:35	72.1	72.1	72.1	65	59.7	0	1	270	0.00	30.111 
04:40	71.8	71.8	71.8	65	59.4	0	1	270	0.00	30.111 
04:45	71.5	71.5	71.5	66	59.5	0	2	270	0.00	30.113 
04:50	71.3	71.3	71.3	66	59.3	0	1	270	0.00	30.113 
04:55	70.9	70.9	70.9	66	59.0	0	2	270	0.00	30.113 
05:00	70.8	70.8	70.8	66	58.9	0	2	270	0.00	30.114 
05:05	70.6	70.6	70.6	67	59.1	0	2	270	0.00	30.114 
05:10	70.4	70.4	70.4	67	58.9	0	1	270	0.00	30.114 
05:15	70.1	70.1	70.1	68	59.0	0	0	---	0.00	30.116 
05:20	69.8	69.8	69.8	68	58.7	0	1	270	0.00	30.116 
05:25	69.6	69.6	69.6	68	58.6	0	1	270	0.00	30.116 
05:30	69.4	69.4	69.4	68	58.4	0	2	270	0.00	30.123 
05:35	69.3	69.3	69.3	68	58.3	0	1	270	0.00	30.123 
05:40	69.1	69.1	69.1	68	58.1	1	3	270	0.00	30.123 
05:45	69.3	69.3	69.3	66	57.4	2	4	270	0.00	30.130 
05:50	69.4	69.4	69.4	65	57.1	1	3	292	0.00	30.130 
05:55	69.4	69.4	69.4	65	57.1	1	3	292	0.00	30.130 
06:00	69.4	69.4	69.4	65	57.1	1	4	292	0.00	30.137 
06:05	69.3	69.3	69.3	64	56.6	1	3	292	0.00	30.137 
06:10	69.3	69.3	69.3	65	57.0	1	3	292	0.00	30.137 
06:15	68.9	68.9	68.9	65	56.6	1	4	292	0.00	30.148 
06:20	68.9	68.9	68.9	65	56.6	2	4	292	0.00	30.148 
06:25	68.8	68.8	68.8	65	56.5	2	4	338	0.00	30.148 
06:30	68.8	68.8	68.8	64	56.1	1	5	338	0.00	30.155 
06:35	68.8	68.8	68.8	64	56.1	1	5	315	0.00	30.155 
06:40	68.6	68.6	68.6	64	55.9	1	3	292	0.00	30.155 
06:45	68.4	68.4	68.4	65	56.2	1	3	292	0.00	30.164 
06:50	68.3	68.3	68.3	65	56.1	0	2	292	0.00	30.164 
06:55	68.3	68.3	68.3	65	56.1	1	2	292	0.00	30.164 
07:00	68.3	68.3	68.3	66	56.5	1	2	292	0.00	30.167 
07:05	68.1	68.1	68.1	66	56.3	1	3	292	0.00	30.167 
07:10	68.1	68.1	68.1	66	56.3	1	3	292	0.00	30.167 
07:15	68.3	68.3	68.3	65	56.1	1	3	292	0.00	30.172 
07:20	68.4	68.4	68.4	65	56.2	1	2	292	0.00	30.172 
07:25	68.6	68.6	68.6	64	55.9	2	3	292	0.00	30.172 
07:30	68.8	68.8	68.8	64	56.1	1	3	292	0.00	30.175 
07:35	69.1	69.1	69.1	62	55.5	2	4	292	0.00	30.175 
07:40	69.3	69.3	69.3	62	55.7	1	3	292	0.00	30.175 
07:45	69.6	69.6	69.6	62	56.0	2	3	292	0.00	30.180 
07:50	69.8	69.8	69.8	59	54.8	2	4	270	0.00	30.180 
07:55	69.9	69.9	69.9	58	54.4	2	3	270	0.00	30.180 
08:00	70.1	70.1	70.1	55	53.2	2	7	270	0.00	30.176 
08:05	70.3	70.3	70.3	55	53.4	2	4	315	0.00	30.176 
08:10	70.4	70.4	70.4	54	52.9	2	5	270	0.00	30.176 
08:15	70.6	70.6	70.6	54	53.1	2	4	292	0.00	30.182 
08:20	70.8	70.8	70.8	54	53.3	2	5	292	0.00	30.182 
08:25	70.9	70.9	70.9	53	52.9	2	5	270	0.00	30.182 
08:30	71.1	71.1	71.1	52	52.6	2	4	292	0.00	30.186 
08:35	71.5	71.5	71.5	51	52.4	1	3	292	0.00	30.186 
08:40	71.6	71.6	71.6	51	52.5	2	5	270	0.00	30.186 
08:45	71.8	71.8	71.8	49	51.6	2	5	270	0.00	30.192 
08:50	72.0	72.0	72.0	47	50.7	2	4	270	0.00	30.192 
08:55	72.1	72.1	72.1	46	50.2	2	4	270	0.00	30.192 
09:00	72.3	72.3	72.3	46	50.3	2	4	292	0.00	30.195 
09:05	72.5	72.5	72.5	44	49.3	2	5	270	0.00	30.195 
09:10	72.7	72.7	72.7	43	48.9	3	6	292	0.00	30.195 
09:15	72.7	72.7	72.7	43	48.9	3	7	270	0.00	30.198 
09:20	72.8	72.8	72.8	43	49.0	2	5	270	0.00	30.198 
09:25	73.2	73.2	73.2	42	48.7	3	5	270	0.00	30.198 
09:30	73.3	73.3	73.3	42	48.8	2	6	270	0.00	30.196 
09:35	73.7	73.7	73.7	40	47.9	2	5	270	0.00	30.196 
09:40	73.7	73.7	73.7	37	45.8	3	5	292	0.00	30.196 
09:45	73.9	73.9	73.9	40	48.0	2	5	315	0.00	30.194 
09:50	74.0	74.0	74.0	39	47.5	3	5	270	0.00	30.194 
09:55	74.4	74.4	74.4	37	46.4	3	6	270	0.00	30.194 
10:00	74.2	74.2	74.2	36	45.5	3	5	315	0.00	30.195 
10:05	74.4	74.4	74.4	38	47.1	2	5	292	0.00	30.195 
10:10	74.7	74.7	74.7	38	47.4	2	5	270	0.00	30.195 
10:15	75.3	75.3	77.5	37	47.2	2	5	270	0.00	30.192 
10:20	75.4	75.4	77.6	39	48.7	2	4	315	0.00	30.192 
10:25	75.6	75.6	77.6	38	48.2	2	4	315	0.00	30.192 
10:30	75.6	75.6	77.5	36	46.7	3	5	292	0.00	30.191 
10:35	75.6	75.6	77.4	35	46.0	3	5	292	0.00	30.191 
10:40	76.0	76.0	77.6	35	46.4	2	5	270	0.00	30.191 
10:45	76.3	76.3	77.7	36	47.4	2	6	270	0.00	30.191 
10:50	76.5	76.5	77.7	34	46.0	3	6	292	0.00	30.191 
10:55	76.5	76.5	77.6	32	44.4	4	6	270	0.00	30.191 
11:00	76.5	76.5	77.7	34	46.0	3	6	315	0.00	30.190 
11:05	76.8	76.8	77.8	33	45.5	3	5	292	0.00	30.190 
11:10	77.0	77.0	78.0	35	47.2	3	6	270	0.00	30.190 
11:15	77.0	77.0	78.0	35	47.2	3	6	292	0.00	30.184 
11:20	77.4	77.4	78.0	33	46.0	3	6	270	0.00	30.184 
11:25	77.6	77.6	78.1	32	45.4	2	6	270	0.00	30.184 
11:30	77.6	77.6	78.0	31	44.5	3	6	270	0.00	30.181 
11:35	77.6	77.6	78.3	36	48.5	3	6	270	0.00	30.181 
11:40	77.7	77.7	78.2	33	46.3	4	6	270	0.00	30.181 
11:45	77.7	77.7	78.0	31	44.6	4	6	270	0.00	30.180 
11:50	77.9	77.9	78.2	32	45.6	4	7	270	0.00	30.180 
11:55	77.9	77.9	78.3	34	47.2	3	6	270	0.00	30.180 
12:00	78.5	78.5	78.6	33	47.0	3	6	270	0.00	30.180 
12:05	78.6	78.6	78.5	32	46.3	3	6	292	0.00	30.180 
12:10	78.6	78.6	78.5	32	46.3	4	7	270	0.00	30.180 
12:15	78.6	78.6	78.5	32	46.3	4	6	315	0.00	30.180 
12:20	78.8	78.8	78.7	33	47.2	3	9	270	0.00	30.180 
12:25	79.2	79.2	78.9	32	46.8	3	7	315	0.00	30.180 
12:30	79.0	79.0	78.8	32	46.6	4	9	270	0.00	30.175 
12:35	79.0	79.0	78.7	31	45.8	4	9	270	0.00	30.175 
12:40	79.4	79.4	79.0	32	46.9	3	7	270	0.00	30.175 
12:45	79.8	79.8	79.3	33	48.1	3	6	270	0.00	30.174 
12:50	79.6	79.6	79.1	32	47.1	4	8	270	0.00	30.174 
12:55	79.6	79.6	79.0	31	46.3	4	9	292	0.00	30.174 
13:00	79.8	79.8	79.3	33	48.1	3	5	270	0.00	30.172 
13:05	79.8	79.8	79.2	32	47.3	4	7	270	0.00	30.172 
13:10	79.9	79.9	79.3	33	48.2	4	6	270	0.00	30.172 
13:15	80.1	80.1	79.4	32	47.6	4	7	270	0.00	30.166 
13:20	80.1	80.1	79.5	33	48.4	4	10	270	0.00	30.166 
13:25	80.1	80.1	79.4	32	47.6	4	7	270	0.00	30.166 
13:30	80.1	80.1	79.3	31	46.7	4	7	270	0.00	30.166 
13:35	79.9	79.9	79.1	30	45.7	4	9	270	0.00	30.166 
13:40	79.9	79.9	79.2	31	46.5	4	7	270	0.00	30.166 
13:45	79.8	79.8	79.3	33	48.1	3	6	270	0.00	30.164 
13:50	79.9	79.9	79.3	33	48.2	4	8	270	0.00	30.164 
13:55	79.9	79.9	79.4	34	49.0	4	8	270	0.00	30.164 
14:00	80.3	80.3	79.6	33	48.5	3	7	270	0.00	30.160 
14:05	80.7	80.7	79.7	31	47.2	3	6	270	0.00	30.160 
14:10	80.5	80.5	79.4	28	44.4	4	7	270	0.00	30.160 
14:15	80.3	80.3	79.3	29	45.1	5	11	292	0.00	30.153 
14:20	80.5	80.5	79.5	30	46.2	3	7	270	0.00	30.153 
14:25	80.7	80.7	79.7	31	47.2	4	7	270	0.00	30.153 
14:30	81.1	81.1	79.8	29	45.8	4	9	270	0.00	30.150 
14:35	80.9	80.9	79.8	31	47.4	4	9	270	0.00	30.150 
14:40	81.1	81.1	80.0	32	48.4	4	10	270	0.00	30.150 
14:45	81.2	81.2	80.0	31	47.7	4	9	270	0.00	30.148 
14:50	81.2	81.2	80.0	31	47.7	4	8	270	0.00	30.148 
14:55	81.6	81.6	80.3	31	48.0	3	6	270	0.00	30.148 
15:00	81.4	81.4	80.1	30	47.0	5	11	270	0.00	30.142 
15:05	81.2	81.2	79.8	28	45.0	5	9	270	0.00	30.142 
15:10	81.6	81.6	80.0	27	44.4	4	7	270	0.00	30.142 
15:15	82.0	82.0	80.4	29	46.6	4	9	270	0.00	30.136 
15:20	82.0	82.0	80.4	29	46.6	4	9	270	0.00	30.136 
15:25	81.6	81.6	80.3	31	48.0	4	9	292	0.00	30.136 
15:30	81.8	81.8	80.3	30	47.3	3	6	292	0.00	30.131 
15:35	81.8	81.8	80.1	27	44.5	5	11	270	0.00	30.131 
15:40	81.6	81.6	80.1	28	45.3	5	10	270	0.00	30.131 
15:45	81.6	81.6	80.3	31	48.0	4	7	270	0.00	30.129 
15:50	81.4	81.4	79.9	28	45.1	5	10	292	0.00	30.129 
15:55	81.4	81.4	80.0	29	46.1	4	8	270	0.00	30.129 
16:00	81.1	81.1	79.7	28	44.9	4	9	292	0.00	30.127 
16:05	81.2	81.2	80.0	31	47.7	4	10	270	0.00	30.127 
16:10	81.6	81.6	80.3	31	48.0	3	7	292	0.00	30.127 
16:15	81.8	81.8	80.3	29	46.4	5	10	270	0.00	30.123 
16:20	81.6	81.6	80.2	30	47.1	4	9	270	0.00	30.123 
16:25	81.8	81.8	80.3	29	46.4	3	7	270	0.00	30.123 
16:30	82.0	82.0	80.4	29	46.6	4	9	270	0.00	30.120 
16:35	82.2	82.2	80.5	29	46.8	4	8	270	0.00	30.120 
16:40	82.4	82.4	80.5	27	45.0	3	6	270	0.00	30.120 
16:45	82.6	82.6	81.0	31	48.9	2	6	248	0.00	30.119 
16:50	82.6	82.6	80.9	30	48.0	4	9	270	0.00	30.119 
16:55	82.0	82.0	80.3	27	44.7	5	10	270	0.00	30.119 
17:00	82.0	82.0	80.3	28	45.7	4	9	292	0.00	30.121 
17:05	82.0	82.0	80.3	28	45.7	5	9	270	0.00	30.121 
17:10	81.8	81.8	80.3	29	46.4	4	9	292	0.00	30.121 
17:15	82.2	82.2	80.6	30	47.7	4	7	270	0.00	30.121 
17:20	82.4	82.4	80.6	28	46.0	4	8	270	0.00	30.121 
17:25	82.2	82.2	80.4	27	44.9	4	9	270	0.00	30.121 
17:30	81.6	81.6	80.0	27	44.4	5	11	270	0.00	30.117 
17:35	81.2	81.2	79.8	28	45.0	4	7	270	0.00	30.117 
17:40	81.1	81.1	79.7	27	43.9	4	8	270	0.00	30.117 
17:45	80.7	80.7	79.5	29	45.5	4	9	270	0.00	30.113 
17:50	81.1	81.1	80.0	32	48.4	3	8	270	0.00	30.113 
17:55	81.4	81.4	80.2	32	48.7	3	8	270	0.00	30.113 
18:00	80.9	80.9	79.6	28	44.7	5	10	270	0.00	30.114 
18:05	80.9	80.9	79.6	28	44.7	4	7	270	0.00	30.114 
18:10	80.9	80.9	79.6	28	44.7	4	9	270	0.00	30.114 
18:15	80.7	80.7	79.5	29	45.5	3	6	270	0.00	30.110 
18:20	80.9	80.9	79.7	30	46.5	2	7	270	0.00	30.110 
18:25	81.2	81.2	79.8	28	45.0	3	7	270	0.00	30.110 
18:30	80.9	80.9	79.6	28	44.7	4	7	270	0.00	30.107 
18:35	80.9	80.9	79.7	30	46.5	3	6	270	0.00	30.107 
18:40	80.9	80.9	79.7	30	46.5	3	7	270	0.00	30.107 
18:45	80.7	80.7	79.5	28	44.5	5	10	270	0.00	30.099 
18:50	80.7	80.7	79.6	30	46.4	3	7	292	0.00	30.099 
18:55	80.7	80.7	79.6	30	46.4	2	5	270	0.00	30.099 
19:00	80.5	80.5	79.5	30	46.2	3	9	270	0.00	30.096 
19:05	80.3	80.3	79.4	31	46.9	4	9	270	0.00	30.096 
19:10	80.3	80.3	79.4	31	46.9	3	6	270	0.00	30.096 
19:15	80.1	80.1	79.4	32	47.6	3	5	270	0.00	30.093 
19:20	79.9	79.9	79.3	32	47.4	3	6	292	0.00	30.093 
19:25	79.8	79.8	79.3	33	48.1	3	7	270	0.00	30.093 
19:30	79.8	79.8	79.2	32	47.3	4	7	270	0.00	30.095 
19:35	79.6	79.6	79.2	33	47.9	4	9	270	0.00	30.095 
19:40	79.4	79.4	79.1	34	48.6	2	7	270	0.00	30.095 
19:45	79.2	79.2	79.1	35	49.2	2	4	270	0.00	30.094 
19:50	79.2	79.2	79.0	34	48.4	3	6	270	0.00	30.094 
19:55	79.0	79.0	79.0	36	49.7	1	3	270	0.00	30.094 
20:00	78.8	78.8	78.8	35	48.8	1	5	270	0.00	30.092 
20:05	78.5	78.5	78.8	37	50.0	2	5	270	0.00	30.092 
20:10	78.3	78.3	78.7	37	49.9	1	4	270	0.00	30.092 
20:15	78.1	78.1	78.5	36	48.9	1	3	270	0.00	30.091 
20:20	78.1	78.1	78.6	37	49.7	2	4	270	0.00	30.091 
20:25	77.7	77.7	78.5	38	50.0	1	3	270	0.00	30.091 
20:30	77.6	77.6	78.4	38	50.0	1	3	270	0.00	30.091 
20:35	77.2	77.2	78.3	39	50.3	1	2	270	0.00	30.091 
20:40	76.8	76.8	78.1	39	49.9	1	2	270	0.00	30.091 
20:45	76.5	76.5	78.0	40	50.4	0	1	270	0.00	30.093 
20:50	76.3	76.3	78.0	41	50.8	1	2	270	0.00	30.093 
20:55	76.0	76.0	77.9	41	50.6	1	2	270	0.00	30.093 
21:00	75.8	75.8	77.8	41	50.4	1	2	270	0.00	30.094 
21:05	75.6	75.6	77.7	42	50.9	0	1	270	0.00	30.094 
21:10	75.3	75.3	77.6	42	50.6	0	1	270	0.00	30.094 
21:15	74.9	74.9	74.9	43	50.9	0	1	270	0.00	30.095 
21:20	74.6	74.6	74.6	43	50.6	0	1	270	0.00	30.095 
21:25	74.4	74.4	74.4	44	51.0	0	2	270	0.00	30.095 
21:30	74.0	74.0	74.0	45	51.3	0	1	270	0.00	30.098 
21:35	73.7	73.7	73.7	45	51.0	0	1	270	0.00	30.098 
21:40	73.3	73.3	73.3	46	51.3	0	1	270	0.00	30.098 
21:45	73.3	73.3	73.3	46	51.3	0	1	270	0.00	30.106 
21:50	73.2	73.2	73.2	47	51.7	0	1	270	0.00	30.106 
21:55	72.8	72.8	72.8	47	51.4	0	1	270	0.00	30.106 
22:00	72.5	72.5	72.5	48	51.7	0	1	270	0.00	30.106 
22:05	72.3	72.3	72.3	47	50.9	0	1	270	0.00	30.106 
22:10	72.3	72.3	72.3	48	51.5	0	1	270	0.00	30.106 
22:15	72.1	72.1	72.1	48	51.3	0	1	270	0.00	30.108 
22:20	72.0	72.0	72.0	49	51.8	0	0	---	0.00	30.108 
22:25	71.5	71.5	71.5	50	51.9	0	0	---	0.00	30.108 
22:30	71.1	71.1	71.1	51	52.0	0	0	---	0.00	30.109 
22:35	70.6	70.6	70.6	51	51.6	0	0	---	0.00	30.109 
22:40	70.3	70.3	70.3	52	51.8	0	0	---	0.00	30.109 
22:45	69.9	69.9	69.9	53	52.0	0	0	---	0.00	30.117 
22:50	69.6	69.6	69.6	53	51.7	0	0	---	0.00	30.117 
22:55	69.3	69.3	69.3	54	51.9	0	0	---	0.00	30.117 
23:00	68.9	68.9	68.9	55	52.1	0	0	---	0.00	30.121 
23:05	68.6	68.6	68.6	55	51.8	0	0	---	0.00	30.121 
23:10	68.3	68.3	68.3	56	52.0	0	0	---	0.00	30.121 
23:15	67.8	67.8	67.8	57	52.0	0	0	---	0.00	30.121 
23:20	67.4	67.4	67.4	58	52.1	0	0	---	0.00	30.121 
23:25	67.1	67.1	67.1	59	52.3	0	0	---	0.00	30.121 
23:30	66.6	66.6	66.6	61	52.7	0	0	---	0.00	30.120 
23:35	66.3	66.3	66.3	62	52.9	0	0	---	0.00	30.120 
23:40	66.0	66.0	66.0	63	53.0	0	0	---	0.00	30.120 
23:45	65.6	65.6	65.6	63	52.7	0	0	---	0.00	30.124 
23:50	65.2	65.2	65.2	64	52.7	0	0	---	0.00	30.124 
23:55	65.0	65.0	65.0	65	52.9	0	0	---	0.00	30.124 

CoCoRaHS
IN-AL-39
A2 Web Hosting
Creative Commons License
GoDaddy
search engine by freefind advanced

loaded 2018-11-21 00:36:35 • last modified 2010-11-18 10:43:29
Privacy PolicyDisclaimer
• wx.awcolley.com is powered by PmWiki v.2002016 •
• all content (unless otherwise noted) © 2018 A W Colley